Time;durP1;ratioP1;P1;durP2;ratioP2;P2;SDS_P1;SDS_P2;PMS_P1;PMS_P2;Temp;Humidity;BMP_temperature;BMP_pressure;BME280_temperature;BME280_humidity;BME280_pressure;Samples;Min_cycle;Max_cycle;Signal;HPM_P1;HPM_P2
2021/06/14 00:00:22;;;;;;;9.07;4.57;;;;;;;-144.99;79.07;52248.34;4991863;28;20231;-57
2021/06/14 00:02:52;;;;;;;8.80;3.77;;;;;;;-144.99;79.17;52264.66;5003562;28;20222;-58
2021/06/14 00:08:16;;;;;;;6.53;3.67;;;;;;;-144.99;79.35;52215.75;4998311;28;20266;-59
2021/06/14 00:10:50;;;;;;;7.70;4.07;;;;;;;-144.99;79.30;52252.44;4995158;28;20387;-58
2021/06/14 00:13:17;;;;;;;5.67;3.20;;;;;;;-144.99;79.32;52276.88;4992094;28;20229;-59
2021/06/14 00:15:45;;;;;;;5.40;3.23;;;;;;;-144.99;79.19;52240.19;5009730;28;20222;-59
2021/06/14 00:18:13;;;;;;;6.43;3.53;;;;;;;-144.99;79.48;52236.13;5001895;28;20237;-60
2021/06/14 00:20:50;;;;;;;5.87;3.90;;;;;;;-144.99;80.25;52260.56;5000576;28;20235;-59
2021/06/14 00:23:27;;;;;;;7.93;4.40;;;;;;;-144.99;80.34;52260.56;4991156;28;20222;-60
2021/06/14 00:25:56;;;;;;;11.40;4.13;;;;;;;-144.99;80.34;52223.88;4991835;28;20254;-59
2021/06/14 00:28:26;;;;;;;8.23;4.50;;;;;;;-144.99;80.31;52227.97;4999137;28;20222;-60
2021/06/14 00:30:56;;;;;;;4.80;2.97;;;;;;;-144.99;80.04;52285.03;4995116;28;20214;-59
2021/06/14 00:33:29;;;;;;;6.23;3.43;;;;;;;-144.99;80.25;52262.63;4997998;28;20226;-60
2021/06/14 00:35:56;;;;;;;8.60;4.50;;;;;;;-144.99;80.55;52305.41;4994941;28;20195;-61
2021/06/14 00:38:26;;;;;;;8.10;3.63;;;;;;;-144.99;80.64;52276.88;4995707;28;20232;-58
2021/06/14 00:40:53;;;;;;;7.67;3.90;;;;;;;-144.99;80.93;52252.44;4991842;28;20245;-57
2021/06/14 00:43:23;;;;;;;5.83;3.87;;;;;;;-144.99;81.31;52268.72;4999886;28;20216;-59
2021/06/14 00:45:53;;;;;;;6.27;3.37;;;;;;;-144.99;81.44;52260.56;5002334;28;20203;-58
2021/06/14 00:48:23;;;;;;;14.43;5.63;;;;;;;-144.99;81.92;52291.16;5001072;28;20242;-59
2021/06/14 00:50:53;;;;;;;7.57;3.87;;;;;;;-144.99;82.13;52293.19;4991129;28;20219;-58
2021/06/14 00:53:26;;;;;;;6.23;3.10;;;;;;;-144.99;82.23;52244.28;4997063;28;20225;-57
2021/06/14 00:55:57;;;;;;;8.67;3.90;;;;;;;-144.99;82.23;52256.50;4993661;28;20215;-57
2021/06/14 00:58:23;;;;;;;8.93;4.60;;;;;;;-144.99;82.18;52285.03;4991377;28;20246;-57
2021/06/14 01:00:53;;;;;;;9.43;4.13;;;;;;;-144.99;82.24;52293.19;4990596;28;20315;-57
2021/06/14 01:03:20;;;;;;;7.23;5.30;;;;;;;-144.99;82.37;52270.78;4991025;28;20495;-56
2021/06/14 01:05:55;;;;;;;5.30;3.60;;;;;;;-144.99;82.45;52266.69;4992600;28;20435;-56
2021/06/14 01:08:21;;;;;;;6.33;3.60;;;;;;;-144.99;82.28;52260.56;5004087;28;20234;-57
2021/06/14 01:10:52;;;;;;;5.00;3.40;;;;;;;-144.99;82.13;52289.13;4992973;28;20211;-58
2021/06/14 01:13:38;;;;;;;7.47;3.30;;;;;;;-144.99;82.27;52297.25;4991245;28;20211;-58
2021/06/14 01:16:21;;;;;;;7.60;6.00;;;;;;;-144.99;82.29;52264.66;4990817;28;20711;-58
2021/06/14 01:18:54;;;;;;;6.40;4.07;;;;;;;-144.99;82.25;52280.97;5006109;28;20215;-58
2021/06/14 01:21:31;;;;;;;7.77;3.20;;;;;;;-144.99;82.25;52285.03;4998429;28;20427;-58
2021/06/14 01:24:31;;;;;;;5.00;3.43;;;;;;;-144.99;82.23;52285.03;4990425;28;20222;-57
2021/06/14 01:27:33;;;;;;;7.07;4.03;;;;;;;-144.99;82.15;52276.88;4993201;28;20215;-58
2021/06/14 01:30:02;;;;;;;5.30;2.50;;;;;;;-144.99;81.93;52276.88;4988227;28;20217;-58
2021/06/14 01:32:31;;;;;;;5.83;3.80;;;;;;;-144.99;82.30;52268.72;4995968;28;20208;-58
2021/06/14 01:34:58;;;;;;;9.83;3.80;;;;;;;-144.99;82.14;52236.13;4998178;28;20238;-58
2021/06/14 01:37:28;;;;;;;4.57;2.90;;;;;;;-144.99;81.93;52297.25;5003442;28;20214;-58
2021/06/14 01:39:55;;;;;;;6.17;3.03;;;;;;;-144.99;82.08;52260.56;5005571;28;20222;-58
2021/06/14 01:42:22;;;;;;;6.83;3.73;;;;;;;-144.99;82.05;52240.19;4990299;28;20231;-59
2021/06/14 01:44:50;;;;;;;5.13;3.20;;;;;;;-144.99;82.14;52280.97;4993265;28;20211;-58
2021/06/14 01:47:18;;;;;;;4.63;3.67;;;;;;;-144.99;82.60;52264.66;4999329;28;20338;-58
2021/06/14 01:49:51;;;;;;;6.13;3.23;;;;;;;-144.99;83.12;52236.13;5000940;28;20229;-58
2021/06/14 01:52:18;;;;;;;11.07;5.40;;;;;;;-144.99;83.75;52293.19;5003248;28;20222;-58
2021/06/14 01:54:45;;;;;;;5.57;3.60;;;;;;;-144.99;84.19;52256.50;4990670;28;20208;-57
2021/06/14 01:57:12;;;;;;;5.10;2.97;;;;;;;-144.99;84.74;52232.03;4989531;28;20215;-57
2021/06/14 01:59:40;;;;;;;6.07;3.83;;;;;;;-144.99;84.71;52260.56;4995368;28;20239;-57
2021/06/14 02:02:15;;;;;;;5.50;3.83;;;;;;;-144.99;84.69;52280.97;5001377;28;20234;-58
2021/06/14 02:04:46;;;;;;;9.33;3.37;;;;;;;-144.99;84.86;52240.19;4986010;28;20210;-57
2021/06/14 02:07:14;;;;;;;5.37;3.30;;;;;;;-144.99;84.87;52260.56;4994288;28;20708;-57
2021/06/14 02:09:41;;;;;;;6.27;3.17;;;;;;;-144.99;84.96;52223.88;4997972;28;20242;-57
2021/06/14 02:12:14;;;;;;;5.83;3.97;;;;;;;-144.99;85.12;52317.66;4989828;28;20222;-57
2021/06/14 02:14:51;;;;;;;8.27;3.60;;;;;;;-144.99;85.46;52240.19;4990056;28;20808;-57
2021/06/14 02:17:25;;;;;;;10.90;4.03;;;;;;;-144.99;85.58;52256.50;4997811;28;20846;-57
2021/06/14 02:19:54;;;;;;;6.57;3.33;;;;;;;-144.99;85.70;52264.66;4991880;28;20555;-57
2021/06/14 02:22:21;;;;;;;11.10;5.17;;;;;;;-144.99;85.79;52240.19;4976901;28;20243;-56
2021/06/14 02:24:51;;;;;;;7.93;3.37;;;;;;;-144.99;86.18;52254.47;4990010;28;20219;-56
2021/06/14 02:27:20;;;;;;;6.77;3.60;;;;;;;-144.99;86.23;52260.56;4993042;28;20199;-57
2021/06/14 02:29:48;;;;;;;9.23;4.50;;;;;;;-144.99;86.25;52280.97;5001426;28;20285;-56
2021/06/14 02:32:15;;;;;;;5.63;3.23;;;;;;;-144.99;86.44;52260.56;4991472;28;20242;-56
2021/06/14 02:34:44;;;;;;;6.40;3.77;;;;;;;-144.99;86.60;52276.88;4989706;28;20216;-56
2021/06/14 02:37:13;;;;;;;5.00;3.43;;;;;;;-144.99;86.67;52268.72;4989701;28;20351;-56
2021/06/14 02:39:41;;;;;;;5.50;2.97;;;;;;;-144.99;86.19;52248.34;5000371;28;20223;-56
2021/06/14 02:42:11;;;;;;;9.20;3.87;;;;;;;-144.99;85.88;52256.50;5007116;28;20231;-56
2021/06/14 02:44:41;;;;;;;6.83;3.40;;;;;;;-144.99;85.77;52280.97;4999243;28;20219;-56
2021/06/14 02:47:14;;;;;;;5.40;3.97;;;;;;;-144.99;85.78;52293.19;5004679;28;20207;-57
2021/06/14 02:49:46;;;;;;;6.30;3.40;;;;;;;-144.99;85.83;52244.28;5006426;28;20238;-56
2021/06/14 02:52:17;;;;;;;6.93;3.63;;;;;;;-144.99;85.77;52272.81;5004373;28;20211;-58
2021/06/14 02:54:50;;;;;;;4.00;2.67;;;;;;;-144.99;85.68;52264.66;5000656;28;20561;-56
2021/06/14 02:57:18;;;;;;;5.17;3.67;;;;;;;-144.99;85.77;52248.34;4993342;28;20658;-56
2021/06/14 02:59:51;;;;;;;6.40;3.53;;;;;;;-144.99;86.00;52256.50;4993469;28;20223;-57
2021/06/14 03:02:20;;;;;;;6.57;3.50;;;;;;;-144.99;86.00;52268.72;5002518;28;20230;-57
2021/06/14 03:04:48;;;;;;;6.93;4.77;;;;;;;-144.99;85.70;52305.41;5001227;28;20203;-57
2021/06/14 03:07:20;;;;;;;4.40;3.20;;;;;;;-144.99;85.45;52252.44;5007065;28;20218;-57
2021/06/14 03:09:48;;;;;;;8.33;3.67;;;;;;;-144.99;85.38;52305.41;5012317;28;20589;-57
2021/06/14 03:12:14;;;;;;;9.57;3.37;;;;;;;-144.99;85.49;52280.97;5002178;28;20215;-58
2021/06/14 03:14:44;;;;;;;6.17;3.43;;;;;;;-144.99;85.72;52223.88;5002622;28;20216;-58
2021/06/14 03:17:11;;;;;;;12.13;4.63;;;;;;;-144.99;85.93;52305.41;4999525;28;20235;-58
2021/06/14 03:19:39;;;;;;;7.23;3.53;;;;;;;-144.99;85.88;52236.13;5002520;28;20231;-57
2021/06/14 03:22:09;;;;;;;5.80;4.07;;;;;;;-144.99;86.10;52289.13;4995044;28;20705;-58
2021/06/14 03:24:41;;;;;;;4.63;3.03;;;;;;;-144.99;85.96;52248.34;4993207;28;20231;-58
2021/06/14 03:27:15;;;;;;;5.87;3.80;;;;;;;-144.99;85.89;52236.13;4999312;28;20207;-57
2021/06/14 03:29:46;;;;;;;5.80;3.40;;;;;;;-144.99;85.89;52248.34;5003559;28;20258;-57
2021/06/14 03:32:14;;;;;;;7.30;3.63;;;;;;;-144.99;85.99;52223.88;5009697;23;20191;-62
2021/06/14 03:34:41;;;;;;;7.83;3.50;;;;;;;-144.99;85.86;52280.97;5026825;28;20212;-62
2021/06/14 03:37:10;;;;;;;7.83;3.43;;;;;;;-144.99;85.99;52244.28;5029370;28;20209;-62
2021/06/14 03:39:43;;;;;;;5.90;4.07;;;;;;;-144.99;86.04;52227.97;5050999;28;20229;-59
2021/06/14 03:42:10;;;;;;;5.27;3.80;;;;;;;-144.99;86.04;52252.44;5051651;28;20240;-58
2021/06/14 03:44:46;;;;;;;6.60;3.33;;;;;;;-144.99;86.19;52248.34;5050235;28;20220;-58
2021/06/14 03:47:12;;;;;;;3.80;2.37;;;;;;;-144.99;86.30;52266.69;5042380;28;20205;-58
2021/06/14 03:49:44;;;;;;;8.90;3.97;;;;;;;-144.99;86.47;52244.28;5049795;28;20527;-57
2021/06/14 03:52:15;;;;;;;5.53;4.33;;;;;;;-144.99;86.38;52238.16;5051401;28;20216;-57
2021/06/14 03:54:42;;;;;;;6.17;3.93;;;;;;;-144.99;86.45;52280.97;5050661;28;20213;-63
2021/06/14 03:57:08;;;;;;;5.50;3.63;;;;;;;-144.99;86.59;52260.56;5050962;28;20289;-64
2021/06/14 03:59:35;;;;;;;6.70;5.10;;;;;;;-144.99;86.59;52217.78;5051058;28;20287;-63
2021/06/14 04:02:01;;;;;;;6.33;4.27;;;;;;;-144.99;86.55;52264.66;5051089;28;20607;-59
2021/06/14 04:07:11;;;;;;;4.83;3.63;;;;;;;-144.99;86.25;52252.44;5047428;28;20223;-58
2021/06/14 04:09:39;;;;;;;5.97;3.87;;;;;;;-144.99;85.98;52256.50;5051973;28;20240;-63
2021/06/14 04:12:08;;;;;;;8.43;3.50;;;;;;;-144.99;85.78;52244.28;5051920;28;20683;-63
2021/06/14 04:14:38;;;;;;;6.87;3.70;;;;;;;-144.99;85.65;52278.91;5050957;28;20660;-63
2021/06/14 04:17:05;;;;;;;4.30;3.23;;;;;;;-144.99;85.36;52244.28;5045974;28;20631;-63
2021/06/14 04:19:32;;;;;;;7.70;2.77;;;;;;;-144.99;85.09;52223.88;5050624;28;20581;-61
2021/06/14 04:21:58;;;;;;;4.10;3.50;;;;;;;-144.99;85.12;52256.50;5050431;28;20798;-60
2021/06/14 04:24:30;;;;;;;6.40;3.50;;;;;;;-144.99;84.80;52266.69;5050171;28;20205;-62
2021/06/14 04:26:58;;;;;;;7.33;3.93;;;;;;;-144.99;84.17;52268.72;5048207;28;20205;-65
2021/06/14 04:29:29;;;;;;;5.63;3.63;;;;;;;-144.99;83.56;52256.50;5039004;28;20229;-62
2021/06/14 04:31:56;;;;;;;6.57;2.90;;;;;;;-144.99;83.34;52260.56;5047949;28;20240;-61
2021/06/14 04:34:23;;;;;;;6.70;5.00;;;;;;;-144.99;83.14;52211.66;5049271;28;20240;-65
2021/06/14 04:36:52;;;;;;;11.73;3.60;;;;;;;-144.99;82.41;52268.72;5045670;28;20208;-64
2021/06/14 04:39:19;;;;;;;5.30;3.53;;;;;;;-144.99;82.25;52221.84;5050277;28;20225;-63
2021/06/14 04:41:48;;;;;;;5.17;3.50;;;;;;;-144.99;82.07;52244.28;5050430;28;20216;-62
2021/06/14 04:44:16;;;;;;;6.30;3.43;;;;;;;-144.99;81.86;52252.44;5050676;28;20213;-62
2021/06/14 04:46:51;;;;;;;5.77;2.90;;;;;;;-144.99;81.24;52240.19;5049483;28;20208;-65
2021/06/14 04:49:18;;;;;;;5.73;3.00;;;;;;;-144.99;81.21;52211.66;5045155;28;20694;-62
2021/06/14 04:51:45;;;;;;;7.40;3.03;;;;;;;-144.99;80.93;52191.28;5045268;28;20310;-62
2021/06/14 04:54:11;;;;;;;5.93;3.10;;;;;;;-144.99;81.08;52195.34;5049836;28;20221;-62
2021/06/14 04:56:40;;;;;;;6.20;3.57;;;;;;;-144.99;80.84;52215.75;5045810;28;20788;-60
2021/06/14 04:59:13;;;;;;;5.33;3.37;;;;;;;-144.99;80.68;52207.59;5044622;28;20556;-61
2021/06/14 05:01:43;;;;;;;4.80;3.03;;;;;;;-144.99;79.66;52203.50;5047748;28;20206;-61
2021/06/14 05:04:12;;;;;;;8.00;3.07;;;;;;;-144.99;79.41;52227.97;5045634;28;20316;-61
2021/06/14 05:06:41;;;;;;;7.10;4.00;;;;;;;-144.99;78.85;52203.50;5047021;28;20288;-61
2021/06/14 05:09:08;;;;;;;6.50;2.93;;;;;;;-144.99;77.42;52232.03;5044715;28;20741;-62
2021/06/14 05:14:27;;;;;;;6.60;3.30;;;;;;;-144.99;76.34;52211.66;5156281;27;20754;-62
2021/06/14 05:16:56;;;;;;;5.17;2.47;;;;;;;-144.99;75.64;52232.03;5126217;27;20656;-63
2021/06/14 05:19:31;;;;;;;5.23;3.20;;;;;;;-144.99;74.94;52250.38;5109661;28;20220;-60
2021/06/14 05:22:04;;;;;;;6.77;2.93;;;;;;;-144.99;74.64;52187.19;5110125;28;20263;-62
2021/06/14 05:24:39;;;;;;;4.90;3.03;;;;;;;-144.99;74.66;52201.47;5127079;28;20214;-63
2021/06/14 05:27:09;;;;;;;5.63;3.10;;;;;;;-144.99;73.88;52199.44;5124427;28;20222;-63
2021/06/14 05:29:43;;;;;;;4.63;2.20;;;;;;;-144.99;73.86;52211.66;5105848;28;20221;-62
2021/06/14 05:32:10;;;;;;;3.87;2.80;;;;;;;-144.99;73.24;52227.97;5102847;28;20215;-62
2021/06/14 05:34:36;;;;;;;3.13;2.47;;;;;;;-144.99;73.17;52215.75;5107053;28;20208;-62
2021/06/14 05:37:03;;;;;;;8.17;2.73;;;;;;;-144.99;72.84;52195.34;5111030;28;20209;-62
2021/06/14 05:39:32;;;;;;;3.97;2.40;;;;;;;-144.99;72.70;52211.66;5120079;28;20233;-63
2021/06/14 05:42:02;;;;;;;2.97;1.47;;;;;;;-144.99;71.94;52219.81;5112887;28;20653;-62
2021/06/14 05:44:34;;;;;;;5.47;2.53;;;;;;;-144.99;70.39;52191.28;5118485;28;20213;-61
2021/06/14 05:47:11;;;;;;;5.13;2.73;;;;;;;-144.99;70.44;52219.81;5100847;28;20206;-64
2021/06/14 05:49:37;;;;;;;5.83;2.77;;;;;;;-144.99;70.80;52199.44;5114341;28;20223;-61
2021/06/14 05:52:07;;;;;;;5.93;3.23;;;;;;;-144.99;69.90;52164.78;5107465;28;20203;-62
2021/06/14 05:54:34;;;;;;;6.17;2.93;;;;;;;-144.99;69.68;52217.78;5113546;28;20241;-61
2021/06/14 05:57:04;;;;;;;5.20;2.50;;;;;;;-144.99;69.68;52179.06;5116445;28;20211;-64
2021/06/14 05:59:34;;;;;;;5.23;2.23;;;;;;;-144.99;68.36;52203.50;5126783;28;20605;-60
2021/06/14 06:02:06;;;;;;;2.97;1.53;;;;;;;-144.99;67.48;52181.09;5114564;28;20211;-63
2021/06/14 06:04:35;;;;;;;4.90;2.07;;;;;;;-144.99;67.84;52187.19;5106886;28;20207;-63
2021/06/14 06:07:05;;;;;;;6.67;2.43;;;;;;;-144.99;68.05;52203.50;5120967;28;20203;-62
2021/06/14 06:09:32;;;;;;;4.33;2.07;;;;;;;-144.99;65.73;52207.59;5128918;28;20317;-59
2021/06/14 06:11:59;;;;;;;4.17;1.80;;;;;;;-144.99;65.63;52183.13;5128925;28;20203;-59
2021/06/14 06:14:28;;;;;;;5.30;1.77;;;;;;;-144.99;65.31;52199.44;5119739;28;20238;-61
2021/06/14 06:16:57;;;;;;;5.20;2.37;;;;;;;-144.99;65.54;52195.34;5113730;28;20294;-60
2021/06/14 06:19:25;;;;;;;8.47;2.40;;;;;;;-144.99;64.18;52211.66;5113894;28;20230;-60
2021/06/14 06:21:52;;;;;;;3.67;1.70;;;;;;;-144.99;63.42;52217.78;5110251;28;20302;-60
2021/06/14 06:24:18;;;;;;;5.40;1.87;;;;;;;-144.99;63.28;52215.75;5124334;28;20578;-61
2021/06/14 06:26:45;;;;;;;6.33;2.23;;;;;;;-144.99;63.19;52199.44;5100970;28;20689;-59
2021/06/14 06:29:12;;;;;;;6.10;4.10;;;;;;;-144.99;63.40;52191.28;5093170;28;20227;-62
2021/06/14 06:31:38;;;;;;;4.57;1.90;;;;;;;-144.99;61.83;52227.97;5108644;28;20234;-63
2021/06/14 06:34:07;;;;;;;7.77;2.27;;;;;;;-144.99;61.27;52215.75;5115777;28;20600;-63
2021/06/14 06:36:35;;;;;;;8.63;2.37;;;;;;;-144.99;60.89;52230.00;5113168;28;20227;-61
2021/06/14 06:39:02;;;;;;;4.60;2.50;;;;;;;-144.99;59.56;52158.66;5098701;28;20220;-62
2021/06/14 06:41:31;;;;;;;4.67;2.47;;;;;;;-144.99;60.10;52207.59;5096523;28;20209;-64
2021/06/14 06:44:00;;;;;;;5.37;2.70;;;;;;;-144.99;58.91;52158.66;5112437;28;20205;-68
2021/06/14 06:46:27;;;;;;;8.47;3.03;;;;;;;-144.99;58.51;52219.81;5106271;28;20208;-61
2021/06/14 06:48:54;;;;;;;7.00;2.83;;;;;;;-144.99;58.73;52187.19;5092150;28;20230;-62
2021/06/14 06:51:20;;;;;;;9.77;3.90;;;;;;;-144.99;59.40;52187.19;5095966;28;20220;-61
2021/06/14 06:56:35;;;;;;;8.67;2.40;;;;;;;-144.99;58.92;52174.97;5112901;28;20556;-60
2021/06/14 06:59:02;;;;;;;8.17;3.13;;;;;;;-144.99;57.96;52174.97;5100967;28;20229;-62
2021/06/14 07:01:31;;;;;;;12.30;3.97;;;;;;;-144.99;58.14;52146.44;5090877;28;20208;-63
2021/06/14 07:03:58;;;;;;;6.43;3.10;;;;;;;-144.99;57.99;52179.06;5086459;28;20205;-69
2021/06/14 07:06:24;;;;;;;10.13;3.40;;;;;;;-144.99;57.51;52177.00;5093552;28;20205;-70
2021/06/14 07:08:59;;;;;;;6.33;3.40;;;;;;;-144.99;58.14;52162.75;5096531;28;20237;-70
2021/06/14 07:11:33;;;;;;;8.10;3.43;;;;;;;-144.99;58.35;52205.53;5106612;28;20379;-70
2021/06/14 07:14:02;;;;;;;7.07;2.90;;;;;;;-144.99;58.31;52154.59;5118847;28;20235;-70
2021/06/14 07:16:35;;;;;;;10.60;3.53;;;;;;;-144.99;57.76;52179.06;5096087;28;20214;-72
2021/06/14 07:19:04;;;;;;;4.03;2.70;;;;;;;-144.99;57.78;52154.59;5091019;28;20225;-71
2021/06/14 07:21:39;;;;;;;8.33;3.33;;;;;;;-144.99;56.40;52134.22;5085789;28;20210;-75
2021/06/14 07:24:25;;;;;;;8.97;2.93;;;;;;;-144.99;56.38;52154.59;5077126;28;20572;-71
2021/06/14 07:26:51;;;;;;;6.83;3.90;;;;;;;-144.99;56.25;52152.56;5090827;28;20231;-73
2021/06/14 07:29:21;;;;;;;8.73;3.47;;;;;;;-144.99;55.95;52219.81;5095457;28;20425;-67
2021/06/14 07:31:47;;;;;;;7.13;3.67;;;;;;;-144.99;55.39;52179.06;5104481;28;20221;-67
2021/06/14 07:34:14;;;;;;;8.57;4.30;;;;;;;-144.99;55.36;52138.28;5110174;28;20241;-66
2021/06/14 07:36:46;;;;;;;7.33;4.03;;;;;;;-144.99;55.55;52181.09;5108567;28;20221;-67
2021/06/14 07:39:12;;;;;;;6.60;3.47;;;;;;;-144.99;54.61;52160.72;5100131;28;20235;-65
2021/06/14 07:41:43;;;;;;;7.17;3.77;;;;;;;-144.99;54.39;52189.25;5095758;28;20211;-68
2021/06/14 07:44:13;;;;;;;7.47;3.77;;;;;;;-144.99;55.08;52166.81;5101021;28;20202;-67
2021/06/14 07:46:42;;;;;;;7.53;3.70;;;;;;;-144.99;54.04;52132.19;5090277;28;20298;-66
2021/06/14 07:49:09;;;;;;;9.03;3.90;;;;;;;-144.99;55.01;52179.06;5093453;28;20603;-66
2021/06/14 07:51:38;;;;;;;5.47;2.70;;;;;;;-144.99;55.15;52154.59;5089560;28;20217;-70
2021/06/14 07:54:08;;;;;;;11.37;4.07;;;;;;;-144.99;54.75;52179.06;5088982;28;20242;-65
2021/06/14 07:56:46;;;;;;;10.57;4.73;;;;;;;-144.99;55.01;52187.19;5095110;28;20206;-63
2021/06/14 07:59:20;;;;;;;7.07;3.43;;;;;;;-144.99;54.48;52132.19;5104683;28;20230;-65
2021/06/14 08:01:49;;;;;;;7.20;3.60;;;;;;;-144.99;54.13;52179.06;5110449;28;20208;-65
2021/06/14 08:04:19;;;;;;;11.17;3.77;;;;;;;-144.99;54.79;52166.81;5102683;28;20248;-65
2021/06/14 08:06:45;;;;;;;5.23;4.00;;;;;;;-144.99;53.54;52152.56;5098005;28;20203;-65
2021/06/14 08:09:12;;;;;;;9.60;3.67;;;;;;;-144.99;53.55;52146.44;5095168;28;20223;-65
2021/06/14 08:11:45;;;;;;;10.87;4.53;;;;;;;-144.99;53.13;52154.59;5091059;28;20204;-66
2021/06/14 08:14:12;;;;;;;10.03;4.07;;;;;;;-144.99;52.65;52183.13;5109137;28;20231;-65
2021/06/14 08:16:42;;;;;;;9.97;5.77;;;;;;;-144.99;52.66;52121.97;5102698;28;20207;-67
2021/06/14 08:19:22;;;;;;;10.47;5.13;;;;;;;-144.99;52.61;52150.53;5093390;28;20250;-63
2021/06/14 08:22:08;;;;;;;7.53;4.00;;;;;;;-144.99;53.06;52154.59;5094720;28;20203;-66
2021/06/14 08:27:20;;;;;;;7.77;3.53;;;;;;;-144.99;52.14;52154.59;5089471;28;20347;-67
2021/06/14 08:29:51;;;;;;;9.33;4.57;;;;;;;-144.99;51.63;52179.06;5097846;28;20342;-66
2021/06/14 08:32:23;;;;;;;7.93;3.90;;;;;;;-144.99;51.58;52154.59;5108710;28;20210;-67
2021/06/14 08:34:50;;;;;;;9.40;3.83;;;;;;;-144.99;52.16;52146.44;5109660;28;20233;-66
2021/06/14 08:37:19;;;;;;;8.90;4.47;;;;;;;-144.99;52.01;52138.28;5090587;28;20220;-66
2021/06/14 08:39:45;;;;;;;23.70;5.30;;;;;;;-144.99;51.20;52168.84;5103405;28;20209;-66
2021/06/14 08:42:18;;;;;;;6.20;3.83;;;;;;;-144.99;51.08;52105.69;5109805;28;20215;-67
2021/06/14 08:44:49;;;;;;;9.33;5.57;;;;;;;-144.99;51.30;52117.91;5108645;28;20193;-65
2021/06/14 08:47:19;;;;;;;8.33;4.33;;;;;;;-144.99;51.22;52162.75;5089394;28;20201;-65
2021/06/14 08:49:48;;;;;;;8.57;4.73;;;;;;;-144.99;51.53;52170.91;5086659;28;20217;-66
2021/06/14 08:52:20;;;;;;;10.73;4.43;;;;;;;-144.99;51.38;52113.84;5088637;28;20203;-65
2021/06/14 08:54:47;;;;;;;8.93;6.07;;;;;;;-144.99;50.52;52095.50;5107549;28;20232;-66
2021/06/14 08:57:17;;;;;;;9.13;4.20;;;;;;;-144.99;49.68;52160.72;5094245;28;20564;-66
2021/06/14 08:59:48;;;;;;;7.93;4.17;;;;;;;-144.99;48.79;52105.69;5094782;28;20686;-66
2021/06/14 09:02:14;;;;;;;7.33;4.10;;;;;;;-144.99;49.19;52146.44;5109895;28;20206;-66
2021/06/14 09:04:45;;;;;;;10.40;4.33;;;;;;;-144.99;48.86;52097.53;5101939;28;20202;-68
2021/06/14 09:07:12;;;;;;;9.77;4.17;;;;;;;-144.99;48.77;52170.91;5100550;28;20332;-65
2021/06/14 09:09:38;;;;;;;11.67;4.40;;;;;;;-144.99;48.39;52095.50;5100495;28;20722;-67
2021/06/14 09:12:15;;;;;;;7.87;3.60;;;;;;;-144.99;48.35;52136.25;5094056;28;20202;-67
2021/06/14 09:14:43;;;;;;;16.63;4.83;;;;;;;-144.99;47.96;52091.41;5095803;28;20248;-64
2021/06/14 09:17:17;;;;;;;12.77;4.67;;;;;;;-144.99;48.11;52099.56;5096337;28;20200;-67
2021/06/14 09:19:52;;;;;;;9.03;4.10;;;;;;;-144.99;48.28;52130.13;5099043;28;20215;-66
2021/06/14 09:22:21;;;;;;;12.53;5.23;;;;;;;-144.99;48.57;52117.91;5094324;28;20459;-65
2021/06/14 09:24:56;;;;;;;8.97;4.73;;;;;;;-144.99;48.58;52117.91;5094128;28;20286;-65
2021/06/14 09:27:31;;;;;;;7.67;3.87;;;;;;;-144.99;48.12;52109.75;5093638;28;20595;-66
2021/06/14 09:30:04;;;;;;;10.27;4.83;;;;;;;-144.99;47.55;52101.59;5102711;28;20214;-66
2021/06/14 09:32:32;;;;;;;8.73;4.27;;;;;;;-144.99;48.08;52113.84;5088180;28;20234;-66
2021/06/14 09:34:58;;;;;;;6.87;3.43;;;;;;;-144.99;47.13;52121.97;5089894;28;20664;-66
2021/06/14 09:37:28;;;;;;;8.53;3.60;;;;;;;-144.99;46.30;52134.22;5088133;28;20222;-68
2021/06/14 09:39:58;;;;;;;11.63;4.33;;;;;;;-144.99;46.17;52073.06;5079313;28;20237;-65
2021/06/14 09:42:30;;;;;;;7.57;4.17;;;;;;;-144.99;46.64;52105.69;5094862;28;20687;-67
2021/06/14 09:45:05;;;;;;;7.93;4.27;;;;;;;-144.99;46.13;52097.53;5092619;28;20208;-67
2021/06/14 09:47:33;;;;;;;8.07;3.93;;;;;;;-144.99;45.71;52109.75;5095233;28;20205;-69
2021/06/14 09:50:07;;;;;;;7.43;3.93;;;;;;;-144.99;45.22;52081.22;5088355;28;20200;-66
2021/06/14 09:52:37;;;;;;;5.27;3.17;;;;;;;-144.99;44.99;52113.84;5107524;28;20381;-66
2021/06/14 09:55:12;;;;;;;11.53;3.33;;;;;;;-144.99;45.33;52109.75;5108379;28;20253;-65
2021/06/14 09:57:41;;;;;;;8.73;3.50;;;;;;;-144.99;44.57;52105.69;5103767;28;20307;-66
2021/06/14 10:00:14;;;;;;;8.17;4.20;;;;;;;-144.99;44.90;52089.38;5091230;28;20204;-67
2021/06/14 10:02:43;;;;;;;6.53;3.07;;;;;;;-144.99;45.19;52101.59;5104019;28;20694;-66
2021/06/14 10:05:18;;;;;;;9.50;5.93;;;;;;;-144.99;45.23;52105.69;5091955;28;20203;-66
2021/06/14 10:07:52;;;;;;;5.73;3.30;;;;;;;-144.99;45.73;52105.69;5105711;28;20287;-68
2021/06/14 10:10:20;;;;;;;8.13;4.90;;;;;;;-144.99;45.13;52097.53;5106987;28;20208;-66
2021/06/14 10:12:52;;;;;;;8.87;6.17;;;;;;;-144.99;45.24;52109.75;5091711;28;20209;-65
2021/06/14 10:15:32;;;;;;;6.87;3.10;;;;;;;-144.99;45.26;52046.56;5101154;28;20233;-66
2021/06/14 10:18:00;;;;;;;6.40;2.90;;;;;;;-144.99;45.19;52066.97;5094658;28;20228;-65
2021/06/14 10:20:30;;;;;;;6.70;3.37;;;;;;;-144.99;44.61;52054.72;5094818;28;20206;-68
2021/06/14 10:23:00;;;;;;;6.50;3.73;;;;;;;-144.99;44.58;52069.00;5097913;28;20218;-69
2021/06/14 10:25:27;;;;;;;5.57;3.23;;;;;;;-144.99;44.81;52066.97;5097642;28;20200;-68
2021/06/14 10:27:54;;;;;;;6.83;3.90;;;;;;;-144.99;44.65;52044.53;5097452;28;20776;-66
2021/06/14 10:30:23;;;;;;;9.17;3.87;;;;;;;-144.99;44.15;52064.91;5092141;28;20590;-68
2021/06/14 10:32:50;;;;;;;10.60;4.53;;;;;;;-144.99;44.25;52044.53;5086413;28;20216;-66
2021/06/14 10:35:20;;;;;;;6.47;3.13;;;;;;;-144.99;44.99;52056.78;5111964;28;20233;-66
2021/06/14 10:37:49;;;;;;;9.80;3.87;;;;;;;-144.99;42.93;52024.16;5095680;28;20233;-68
2021/06/14 10:40:25;;;;;;;9.00;3.33;;;;;;;-144.99;42.69;52024.16;5092495;28;20207;-67
2021/06/14 10:42:55;;;;;;;7.63;3.77;;;;;;;-144.99;43.03;52028.22;5093870;28;20206;-66
2021/06/14 10:45:31;;;;;;;7.90;3.60;;;;;;;-144.99;42.47;52056.78;5102914;28;20215;-66
2021/06/14 10:48:05;;;;;;;7.97;3.90;;;;;;;-144.99;42.26;52044.53;5083798;28;20231;-64
2021/06/14 10:50:39;;;;;;;8.43;3.80;;;;;;;-144.99;42.18;52044.53;5096902;28;20205;-66
2021/06/14 10:53:08;;;;;;;6.90;2.87;;;;;;;-144.99;42.24;52040.47;5100749;28;20219;-69
2021/06/14 10:55:42;;;;;;;9.93;4.57;;;;;;;-144.99;41.76;52016.00;5108754;28;20262;-67
2021/06/14 10:58:15;;;;;;;7.00;3.33;;;;;;;-144.99;42.37;52020.09;5091436;28;20255;-66
2021/06/14 11:00:45;;;;;;;14.60;4.13;;;;;;;-144.99;42.17;52038.44;5099452;28;20228;-66
2021/06/14 11:03:17;;;;;;;9.97;3.57;;;;;;;-144.99;42.79;52016.00;5089916;28;20394;-68
2021/06/14 11:05:57;;;;;;;6.93;3.63;;;;;;;-144.99;42.46;51999.69;5089403;28;20204;-66
2021/06/14 11:08:24;;;;;;;6.83;3.60;;;;;;;-144.99;42.55;52016.00;5090118;28;20777;-68
2021/06/14 11:11:08;;;;;;;10.33;4.63;;;;;;;-144.99;42.52;52020.09;5093102;28;20464;-67
2021/06/14 11:13:46;;;;;;;5.17;2.70;;;;;;;-144.99;41.68;51997.66;5112561;28;20222;-65
2021/06/14 11:16:15;;;;;;;8.23;3.87;;;;;;;-144.99;41.36;52007.84;5109570;28;20248;-65
2021/06/14 11:18:42;;;;;;;7.20;3.60;;;;;;;-144.99;41.44;52022.13;5096216;28;20250;-66
2021/06/14 11:21:12;;;;;;;6.67;4.73;;;;;;;-144.99;41.93;52018.03;5090679;28;20204;-64
2021/06/14 11:23:42;;;;;;;6.20;4.27;;;;;;;-144.99;41.66;52036.38;5099955;28;20230;-66
2021/06/14 11:26:13;;;;;;;7.70;4.20;;;;;;;-144.99;42.68;52032.31;5111823;28;20218;-66
2021/06/14 11:28:42;;;;;;;6.33;3.67;;;;;;;-144.99;42.46;51993.59;5097190;28;20250;-66
2021/06/14 11:31:17;;;;;;;6.07;3.50;;;;;;;-144.99;42.18;52048.63;5094580;28;20211;-66
2021/06/14 11:33:45;;;;;;;7.53;3.23;;;;;;;-144.99;41.89;52018.03;5090466;28;20206;-67
2021/06/14 11:36:21;;;;;;;8.10;4.50;;;;;;;-144.99;41.93;52040.47;5090512;28;20229;-65
2021/06/14 11:38:48;;;;;;;7.33;2.73;;;;;;;-144.99;41.78;51985.44;5109936;28;20234;-65
2021/06/14 11:41:28;;;;;;;6.60;3.47;;;;;;;-144.99;42.20;52036.38;5097156;28;20204;-65
2021/06/14 11:44:28;;;;;;;4.90;3.00;;;;;;;-144.99;42.17;52024.16;5088164;28;20203;-68